Bever, Belgium
Current Conditions -  °F | °C
As of 10:20 AM on Friday 31 Oct 2014 (Local Time) from EBBR Reporting Station
Clear Clear  
Wind Chill: 61°   Ceiling: Unl
Heat Index: 61°   Visibility: 6mi
Dew Point: 52°   Wind: 5mph
Humidity: 72%   Direction: 190°S
Pressure: 30.18"   Gusts: NA
Location:  50.92°N, 4.32°E
Report Text: EBBR 310920Z 19004KT CAVOK 16/11 Q1022 NOSIG
Loading
Personal Weather Stations






























Interactive Weather Map
Tropical Storm Tracking
New forecast layout! Learn more

10-Day Weather Forecast

Advertisements
Track Severe Weather on mobile